createdAt,value
2019-05-09T00:01:58.307Z,13.18
2019-05-09T00:04:33.482Z,13.18
2019-05-09T00:07:07.412Z,13.31
2019-05-09T00:09:41.112Z,13.16
2019-05-09T00:12:14.828Z,13.14
2019-05-09T00:14:48.519Z,13.20
2019-05-09T00:17:23.265Z,13.30
2019-05-09T00:19:57.153Z,13.30
2019-05-09T00:22:33.246Z,13.22
2019-05-09T00:25:07.103Z,13.22
2019-05-09T00:27:40.812Z,13.22
2019-05-09T00:30:14.515Z,13.18
2019-05-09T00:32:48.226Z,13.28
2019-05-09T00:35:23.369Z,13.28
2019-05-09T00:37:57.237Z,13.46
2019-05-09T00:40:30.940Z,13.47
2019-05-09T00:43:04.646Z,13.45
2019-05-09T00:45:38.344Z,13.45
2019-05-09T00:48:14.011Z,13.28
2019-05-09T00:50:47.470Z,13.28
2019-05-09T00:53:23.101Z,13.31
2019-05-09T00:55:56.587Z,13.35
2019-05-09T00:58:30.287Z,13.35
2019-05-09T01:01:04.514Z,13.36
2019-05-09T01:03:38.396Z,13.38
2019-05-09T01:06:13.457Z,13.38
2019-05-09T01:08:47.295Z,13.43
2019-05-09T01:11:21.139Z,13.40
2019-05-09T01:13:54.866Z,13.40
2019-05-09T01:16:28.551Z,13.25
2019-05-09T01:19:03.657Z,13.25
2019-05-09T01:21:37.544Z,13.16
2019-05-09T01:24:11.272Z,13.16
2019-05-09T01:26:46.616Z,13.22
2019-05-09T01:29:20.532Z,13.24
2019-05-09T01:31:54.223Z,13.19
2019-05-09T01:34:27.940Z,13.08
2019-05-09T01:37:03.494Z,13.07
2019-05-09T01:39:37.477Z,13.07
2019-05-09T01:42:11.175Z,12.76
2019-05-09T01:44:44.886Z,12.76
2019-05-09T01:47:18.599Z,12.95
2019-05-09T01:49:53.839Z,12.77
2019-05-09T01:52:27.762Z,12.77
2019-05-09T01:55:03.659Z,12.75
2019-05-09T01:57:36.927Z,12.58
2019-05-09T02:00:10.639Z,12.58
2019-05-09T02:02:44.346Z,12.89
2019-05-09T02:05:18.328Z,12.73
2019-05-09T02:07:54.107Z,12.78
2019-05-09T02:10:27.437Z,12.78
2019-05-09T02:13:03.058Z,12.78
2019-05-09T02:15:37.149Z,12.77
2019-05-09T02:18:10.872Z,13.02
2019-05-09T02:20:44.849Z,13.02
2019-05-09T02:23:18.555Z,12.97
2019-05-09T02:26:13.589Z,12.85
2019-05-09T02:28:47.106Z,12.94
2019-05-09T02:31:20.825Z,13.04
2019-05-09T02:33:54.544Z,13.09
2019-05-09T02:36:29.592Z,12.80
2019-05-09T02:39:08.919Z,12.98
2019-05-09T02:41:59.584Z,13.06
2019-05-09T02:44:19.533Z,12.94
2019-05-09T02:46:52.571Z,12.94
2019-05-09T02:49:28.718Z,13.14
2019-05-09T02:52:01.974Z,13.17
2019-05-09T02:54:39.097Z,12.86
2019-05-09T02:57:11.090Z,12.72
2019-05-09T02:59:44.790Z,12.81
2019-05-09T03:02:19.508Z,12.70
2019-05-09T03:04:53.500Z,12.70
2019-05-09T03:07:28.825Z,12.89
2019-05-09T03:10:03.755Z,12.89
2019-05-09T03:12:39.860Z,12.88
2019-05-09T03:15:13.422Z,12.89
2019-05-09T03:17:49.440Z,12.89
2019-05-09T03:20:22.525Z,12.85
2019-05-09T03:22:58.272Z,12.85
2019-05-09T03:25:31.988Z,12.69
2019-05-09T03:28:05.702Z,12.74
2019-05-09T03:30:39.942Z,12.72
2019-05-09T03:33:13.721Z,12.72
2019-05-09T03:35:48.194Z,12.78
2019-05-09T03:38:21.907Z,12.71
2019-05-09T03:40:57.899Z,12.97
2019-05-09T03:43:31.189Z,12.97
2019-05-09T03:46:04.898Z,13.05
2019-05-09T03:48:38.601Z,12.87
2019-05-09T03:51:13.125Z,12.87
2019-05-09T03:53:48.394Z,12.67
2019-05-09T03:56:22.302Z,12.67
2019-05-09T03:58:57.855Z,12.28
2019-05-09T04:01:31.417Z,12.52
2019-05-09T04:04:05.115Z,12.53
2019-05-09T04:06:39.285Z,12.53
2019-05-09T04:09:13.141Z,12.52
2019-05-09T04:11:48.497Z,12.43
2019-05-09T04:14:22.430Z,12.49
2019-05-09T04:16:57.541Z,12.56
2019-05-09T04:19:31.426Z,12.59
2019-05-09T04:22:05.153Z,12.59
2019-05-09T04:24:38.880Z,12.30
2019-05-09T04:27:13.272Z,12.30
2019-05-09T04:29:48.402Z,12.44
2019-05-09T04:32:22.254Z,12.64
2019-05-09T04:34:57.804Z,12.64
2019-05-09T04:37:31.378Z,12.77
2019-05-09T04:40:05.115Z,12.81
2019-05-09T04:42:43.020Z,12.80
2019-05-09T04:45:14.218Z,12.80
2019-05-09T04:47:47.962Z,12.87
2019-05-09T04:50:24.893Z,12.97
2019-05-09T04:52:58.022Z,12.97
2019-05-09T04:55:31.852Z,12.82
2019-05-09T04:58:05.562Z,12.82
2019-05-09T05:00:39.271Z,12.76
2019-05-09T05:03:13.524Z,12.76
2019-05-09T05:05:48.212Z,12.67
2019-05-09T05:08:22.034Z,12.56
2019-05-09T05:10:58.089Z,12.56
2019-05-09T05:13:31.150Z,12.68
2019-05-09T05:16:04.916Z,12.67
2019-05-09T05:18:38.639Z,12.46
2019-05-09T05:21:12.322Z,12.37
2019-05-09T05:23:47.258Z,12.49
2019-05-09T05:26:21.016Z,12.49
2019-05-09T05:28:54.715Z,12.47
2019-05-09T05:31:28.689Z,12.40
2019-05-09T05:34:02.527Z,12.39
2019-05-09T05:36:38.232Z,12.56
2019-05-09T05:39:11.663Z,12.51
2019-05-09T05:41:45.371Z,12.57
2019-05-09T05:44:19.092Z,12.57
2019-05-09T05:46:52.826Z,12.55
2019-05-09T05:49:27.930Z,12.45
2019-05-09T05:52:01.817Z,12.48
2019-05-09T05:54:37.679Z,12.40
2019-05-09T05:57:10.943Z,12.56
2019-05-09T05:59:44.675Z,12.41
2019-05-09T06:02:18.385Z,12.52
2019-05-09T06:04:52.084Z,12.71
2019-05-09T06:07:25.792Z,12.71
2019-05-09T06:09:59.496Z,12.91
2019-05-09T06:12:33.223Z,12.82
2019-05-09T06:15:07.557Z,12.93
2019-05-09T06:17:41.499Z,12.93
2019-05-09T06:20:17.595Z,12.85
2019-05-09T06:22:50.620Z,12.85
2019-05-09T06:25:24.383Z,13.01
2019-05-09T06:27:58.557Z,13.18
2019-05-09T06:30:32.730Z,13.19
2019-05-09T06:33:08.969Z,13.02
2019-05-09T06:35:41.980Z,13.02
2019-05-09T06:38:15.707Z,13.23
2019-05-09T06:40:49.416Z,13.23
2019-05-09T06:43:23.114Z,13.24
2019-05-09T06:45:57.555Z,13.43
2019-05-09T06:48:31.335Z,13.12
2019-05-09T06:51:07.202Z,13.12
2019-05-09T06:53:40.456Z,13.35
2019-05-09T06:56:14.153Z,13.43
2019-05-09T06:58:48.215Z,13.43
2019-05-09T07:01:22.055Z,13.38
2019-05-09T07:03:57.534Z,13.45
2019-05-09T07:06:31.366Z,13.45
2019-05-09T07:09:08.423Z,13.21
2019-05-09T07:11:42.284Z,13.43
2019-05-09T07:14:26.665Z,13.55
2019-05-09T07:16:51.411Z,13.61
2019-05-09T07:19:25.113Z,13.58
2019-05-09T07:21:58.853Z,13.58
2019-05-09T07:24:32.545Z,13.85
2019-05-09T07:27:07.330Z,13.94
2019-05-09T07:29:41.143Z,13.82
2019-05-09T07:32:14.849Z,13.82
2019-05-09T07:34:48.565Z,14.18
2019-05-09T07:37:22.274Z,14.10
2019-05-09T07:39:57.747Z,13.96
2019-05-09T07:42:31.380Z,14.22
2019-05-09T07:45:05.833Z,14.10
2019-05-09T07:47:39.545Z,14.15
2019-05-09T07:50:13.835Z,14.15
2019-05-09T07:52:47.897Z,14.11
2019-05-09T07:55:21.831Z,14.58
2019-05-09T07:57:58.160Z,14.50
2019-05-09T08:00:32.901Z,14.50
2019-05-09T08:03:09.250Z,14.68
2019-05-09T08:05:42.034Z,14.73
2019-05-09T08:08:18.334Z,14.61
2019-05-09T08:10:51.401Z,14.61
2019-05-09T08:13:25.092Z,14.73
2019-05-09T08:15:58.917Z,15.01
2019-05-09T08:18:32.588Z,15.01
2019-05-09T08:21:08.277Z,15.18
2019-05-09T08:23:41.773Z,15.17
2019-05-09T08:26:15.466Z,15.26
2019-05-09T08:28:49.207Z,15.26
2019-05-09T08:31:22.940Z,15.32
2019-05-09T08:33:59.047Z,15.27
2019-05-09T08:36:32.034Z,15.11
2019-05-09T08:39:08.118Z,15.18
2019-05-09T08:41:43.564Z,15.38
2019-05-09T08:44:18.702Z,15.38
2019-05-09T08:46:52.558Z,15.90
2019-05-09T08:49:28.556Z,16.12
2019-05-09T08:52:15.474Z,16.12
2019-05-09T08:54:38.040Z,16.18
2019-05-09T08:57:13.062Z,15.86
2019-05-09T08:59:50.224Z,16.02
2019-05-09T09:02:22.589Z,15.97
2019-05-09T09:04:58.224Z,15.71
2019-05-09T09:07:31.874Z,15.49
2019-05-09T09:10:08.212Z,15.49
2019-05-09T09:12:41.125Z,16.28
2019-05-09T09:15:14.820Z,16.28
2019-05-09T09:17:49.266Z,16.62
2019-05-09T09:20:22.984Z,16.76
2019-05-09T09:22:58.198Z,16.76
2019-05-09T09:25:32.330Z,16.64
2019-05-09T09:28:08.496Z,16.83
2019-05-09T09:30:41.435Z,16.75
2019-05-09T09:33:17.470Z,16.92
2019-05-09T09:35:50.567Z,16.92
2019-05-09T09:38:24.298Z,16.72
2019-05-09T09:40:58.202Z,16.98
2019-05-09T09:43:32.027Z,16.98
2019-05-09T09:46:11.829Z,16.97
2019-05-09T09:48:41.126Z,16.97
2019-05-09T09:51:14.829Z,17.27
2019-05-09T09:53:49.124Z,17.51
2019-05-09T09:56:22.969Z,17.12
2019-05-09T09:58:57.698Z,17.60
2019-05-09T10:01:31.468Z,17.47
2019-05-09T10:04:16.732Z,17.51
2019-05-09T10:06:40.671Z,17.63
2019-05-09T10:09:14.376Z,17.63
2019-05-09T10:11:48.473Z,18.11
2019-05-09T10:14:22.299Z,18.08
2019-05-09T10:16:58.073Z,18.08
2019-05-09T10:19:31.408Z,18.00
2019-05-09T10:22:05.111Z,18.00
2019-05-09T10:24:38.838Z,18.48
2019-05-09T10:27:13.383Z,18.48
2019-05-09T10:29:48.006Z,18.55
2019-05-09T10:32:21.860Z,18.78
2019-05-09T10:34:57.885Z,18.78
2019-05-09T10:37:30.982Z,18.82
2019-05-09T10:40:05.768Z,18.84
2019-05-09T10:42:39.510Z,18.84
2019-05-09T10:45:13.400Z,19.11
2019-05-09T10:47:48.317Z,18.72
2019-05-09T10:50:22.185Z,18.72
2019-05-09T10:52:58.196Z,18.71
2019-05-09T10:55:31.326Z,18.99
2019-05-09T10:58:07.865Z,19.17
2019-05-09T11:00:40.437Z,19.09
2019-05-09T11:03:14.130Z,19.09
2019-05-09T11:05:47.828Z,19.48
2019-05-09T11:08:21.557Z,19.48
2019-05-09T11:10:55.244Z,19.33
2019-05-09T11:13:28.948Z,19.25
2019-05-09T11:16:02.678Z,19.00
2019-05-09T11:18:36.416Z,19.00
2019-05-09T11:21:10.119Z,19.09
2019-05-09T11:23:43.873Z,19.42
2019-05-09T11:26:18.122Z,19.42
2019-05-09T11:28:52.094Z,19.60
2019-05-09T11:31:25.823Z,20.05
2019-05-09T11:33:59.510Z,20.05
2019-05-09T11:36:33.227Z,20.06
2019-05-09T11:39:10.647Z,20.06
2019-05-09T11:41:42.967Z,20.33
2019-05-09T11:44:18.452Z,20.33
2019-05-09T11:46:52.280Z,20.23
2019-05-09T11:49:25.979Z,20.10
2019-05-09T11:51:59.694Z,20.15
2019-05-09T11:54:33.393Z,20.15
2019-05-09T11:57:07.677Z,19.76
2019-05-09T11:59:41.523Z,19.76
2019-05-09T12:02:15.238Z,19.48
2019-05-09T12:04:49.012Z,19.68
2019-05-09T12:07:22.713Z,19.80
2019-05-09T12:09:58.684Z,19.74
2019-05-09T12:12:31.789Z,19.74
2019-05-09T12:15:08.778Z,19.60
2019-05-09T12:17:56.026Z,19.59
2019-05-09T12:20:18.145Z,19.59
2019-05-09T12:22:52.040Z,19.97
2019-05-09T12:25:28.084Z,19.86
2019-05-09T12:28:01.134Z,19.82
2019-05-09T12:30:34.837Z,19.82
2019-05-09T12:33:08.796Z,19.92
2019-05-09T12:35:42.522Z,20.07
2019-05-09T12:38:18.087Z,20.07
2019-05-09T12:40:51.638Z,20.13
2019-05-09T12:43:25.350Z,20.13
2019-05-09T12:45:59.042Z,20.06
2019-05-09T12:48:32.762Z,20.06
2019-05-09T12:51:08.246Z,19.99
2019-05-09T12:53:42.073Z,19.99
2019-05-09T12:56:18.495Z,19.86
2019-05-09T12:58:51.176Z,20.05
2019-05-09T13:01:24.876Z,20.14
2019-05-09T13:03:58.567Z,20.23
2019-05-09T13:06:32.260Z,20.32
2019-05-09T13:09:08.401Z,20.36
2019-05-09T13:11:41.841Z,20.36
2019-05-09T13:14:15.549Z,20.62
2019-05-09T13:16:53.340Z,20.53
2019-05-09T13:19:24.635Z,20.53
2019-05-09T13:21:58.798Z,20.64
2019-05-09T13:24:32.650Z,20.89
2019-05-09T13:27:07.885Z,21.02
2019-05-09T13:29:41.916Z,21.03
2019-05-09T13:32:17.888Z,21.03
2019-05-09T13:34:51.025Z,21.19
2019-05-09T13:37:29.190Z,21.16
2019-05-09T13:40:00.131Z,21.16
2019-05-09T13:42:33.861Z,21.07
2019-05-09T13:45:08.305Z,20.64
2019-05-09T13:47:42.106Z,20.56
2019-05-09T13:50:18.410Z,20.69
2019-05-09T13:52:51.383Z,20.66
2019-05-09T13:55:27.426Z,20.76
2019-05-09T13:58:00.471Z,20.88
2019-05-09T14:00:34.175Z,20.88
2019-05-09T14:03:08.285Z,20.93
2019-05-09T14:05:42.192Z,20.93
2019-05-09T14:08:18.202Z,21.29
2019-05-09T14:10:51.277Z,21.80
2019-05-09T14:13:24.965Z,21.80
2019-05-09T14:15:58.664Z,21.84
2019-05-09T14:18:32.361Z,21.71
2019-05-09T14:21:07.695Z,21.25
2019-05-09T14:23:50.974Z,20.30
2019-05-09T14:26:17.988Z,20.30
2019-05-09T14:28:51.970Z,20.69
2019-05-09T14:31:29.917Z,20.69
2019-05-09T14:34:01.048Z,20.52
2019-05-09T14:36:34.744Z,20.52
2019-05-09T14:39:09.274Z,20.22
2019-05-09T14:41:46.997Z,19.92
2019-05-09T14:44:18.900Z,19.51
2019-05-09T14:46:52.590Z,19.67
2019-05-09T14:49:39.670Z,19.67
2019-05-09T14:52:01.707Z,19.58
2019-05-09T14:54:35.390Z,19.76
2019-05-09T14:57:09.759Z,19.89
2019-05-09T14:59:43.591Z,19.77
2019-05-09T15:02:17.943Z,19.77
2019-05-09T15:04:51.775Z,20.06
2019-05-09T15:07:25.481Z,20.05
2019-05-09T15:09:59.877Z,20.05
2019-05-09T15:12:33.748Z,20.34
2019-05-09T15:15:08.111Z,20.24
2019-05-09T15:17:41.794Z,20.03
2019-05-09T15:20:17.879Z,20.12
2019-05-09T15:22:50.913Z,20.12
2019-05-09T15:25:24.609Z,19.57
2019-05-09T15:27:58.363Z,19.91
2019-05-09T15:30:32.073Z,20.07
2019-05-09T15:33:08.179Z,20.11
2019-05-09T15:35:41.163Z,20.11
2019-05-09T15:38:14.870Z,20.35
2019-05-09T15:40:48.584Z,19.81
2019-05-09T15:43:22.329Z,19.63
2019-05-09T15:45:58.210Z,19.63
2019-05-09T15:48:31.441Z,19.78
2019-05-09T15:51:07.413Z,19.71
2019-05-09T15:53:40.549Z,19.71
2019-05-09T15:56:14.241Z,19.43
2019-05-09T15:58:48.999Z,19.63
2019-05-09T16:01:22.907Z,19.66
2019-05-09T16:03:56.626Z,19.41
2019-05-09T16:06:33.063Z,19.49
2019-05-09T16:09:09.253Z,19.57
2019-05-09T16:11:41.146Z,19.57
2019-05-09T16:14:14.843Z,19.72
2019-05-09T16:16:48.529Z,20.05
2019-05-09T16:19:22.225Z,20.05
2019-05-09T16:21:55.929Z,20.19
2019-05-09T16:24:29.618Z,20.48
2019-05-09T16:27:03.380Z,20.47
2019-05-09T16:29:38.264Z,20.32
2019-05-09T16:32:13.177Z,20.32
2019-05-09T16:34:46.866Z,20.49
2019-05-09T16:37:20.545Z,20.83
2019-05-09T16:39:54.241Z,20.80
2019-05-09T16:42:28.311Z,21.38
2019-05-09T16:45:02.383Z,21.20
2019-05-09T16:47:36.065Z,21.20
2019-05-09T16:50:12.030Z,21.26
2019-05-09T16:52:45.180Z,21.76
2019-05-09T16:55:18.890Z,21.76
2019-05-09T16:57:52.572Z,21.71
2019-05-09T17:00:31.506Z,21.62
2019-05-09T17:03:05.227Z,21.62
2019-05-09T17:05:38.940Z,21.36
2019-05-09T17:08:13.442Z,20.89
2019-05-09T17:10:48.647Z,20.46
2019-05-09T17:13:22.696Z,20.30
2019-05-09T17:15:56.416Z,20.28
2019-05-09T17:18:30.102Z,19.88
2019-05-09T17:21:17.739Z,20.33
2019-05-09T17:23:39.220Z,20.33
2019-05-09T17:26:13.417Z,20.38
2019-05-09T17:28:48.498Z,20.43
2019-05-09T17:31:22.426Z,20.63
2019-05-09T17:33:57.918Z,20.63
2019-05-09T17:36:31.546Z,20.15
2019-05-09T17:39:07.776Z,20.15
2019-05-09T17:41:40.797Z,20.00
2019-05-09T17:44:14.506Z,20.00
2019-05-09T17:46:48.229Z,19.95
2019-05-09T17:49:21.996Z,19.90
2019-05-09T17:51:58.200Z,19.80
2019-05-09T17:54:31.098Z,19.80
2019-05-09T17:57:04.895Z,19.61
2019-05-09T17:59:39.209Z,19.54
2019-05-09T18:02:13.531Z,19.54
2019-05-09T18:04:47.974Z,19.86
2019-05-09T18:07:22.059Z,19.47
2019-05-09T18:09:57.928Z,19.17
2019-05-09T18:12:31.170Z,19.17
2019-05-09T18:15:07.664Z,18.96
2019-05-09T18:17:41.461Z,19.00
2019-05-09T18:20:17.442Z,19.00
2019-05-09T18:22:50.657Z,18.98
2019-05-09T18:25:24.452Z,18.82
2019-05-09T18:27:58.130Z,18.82
2019-05-09T18:30:31.870Z,18.82
2019-05-09T18:33:07.548Z,18.64
2019-05-09T18:35:41.052Z,18.64
2019-05-09T18:38:28.066Z,18.42
2019-05-09T18:41:07.047Z,17.80
2019-05-09T18:43:38.754Z,17.80
2019-05-09T18:46:12.456Z,17.54
2019-05-09T18:48:46.186Z,16.85
2019-05-09T18:51:19.919Z,16.79
2019-05-09T18:53:53.688Z,16.63
2019-05-09T18:56:27.408Z,16.63
2019-05-09T18:59:01.148Z,16.13
2019-05-09T19:01:34.890Z,16.29
2019-05-09T19:04:08.603Z,16.38
2019-05-09T19:06:42.347Z,16.38
2019-05-09T19:09:16.064Z,16.38
2019-05-09T19:11:49.857Z,16.54
2019-05-09T19:14:23.766Z,16.91
2019-05-09T19:16:57.497Z,16.87
2019-05-09T19:19:31.204Z,17.11
2019-05-09T19:22:21.080Z,17.11
2019-05-09T19:24:40.425Z,17.33
2019-05-09T19:27:14.180Z,17.39
2019-05-09T19:29:47.936Z,17.39
2019-05-09T19:32:21.648Z,17.14
2019-05-09T19:34:55.447Z,16.90
2019-05-09T19:37:29.158Z,16.90
2019-05-09T19:40:07.057Z,16.95
2019-05-09T19:42:40.777Z,16.91
2019-05-09T19:45:14.580Z,16.91
2019-05-09T19:47:48.307Z,17.02
2019-05-09T19:50:22.024Z,17.05
2019-05-09T19:52:55.754Z,17.01
2019-05-09T19:55:29.488Z,17.01
2019-05-09T19:58:04.169Z,16.87
2019-05-09T20:00:37.973Z,16.28
2019-05-09T20:03:11.771Z,16.57
2019-05-09T20:05:45.508Z,16.90
2019-05-09T20:08:19.293Z,17.01
2019-05-09T20:10:52.997Z,17.07
2019-05-09T20:13:26.740Z,17.07
2019-05-09T20:16:00.424Z,17.22
2019-05-09T20:18:34.180Z,16.73
2019-05-09T20:21:07.902Z,16.67
2019-05-09T20:23:41.652Z,16.67
2019-05-09T20:26:15.383Z,16.92
2019-05-09T20:28:49.082Z,16.95
2019-05-09T20:31:22.807Z,17.11
2019-05-09T20:33:56.533Z,17.19
2019-05-09T20:36:30.244Z,17.10
2019-05-09T20:39:05.304Z,16.91
2019-05-09T20:41:39.055Z,16.80
2019-05-09T20:44:13.218Z,16.80
2019-05-09T20:46:46.954Z,16.93
2019-05-09T20:49:20.658Z,16.85
2019-05-09T20:51:54.360Z,16.82
2019-05-09T20:54:28.097Z,16.82
2019-05-09T20:57:01.793Z,16.73
2019-05-09T20:59:35.525Z,16.76
2019-05-09T21:02:09.304Z,16.76
2019-05-09T21:04:43.038Z,16.70
2019-05-09T21:07:16.750Z,16.74
2019-05-09T21:09:50.460Z,16.58
2019-05-09T21:12:24.233Z,16.60
2019-05-09T21:14:57.947Z,16.38
2019-05-09T21:17:31.645Z,16.26
2019-05-09T21:20:05.718Z,16.26
2019-05-09T21:22:39.426Z,16.17
2019-05-09T21:25:13.472Z,16.24
2019-05-09T21:27:47.185Z,16.16
2019-05-09T21:30:20.910Z,16.16
2019-05-09T21:32:54.609Z,16.15
2019-05-09T21:35:28.311Z,15.65
2019-05-09T21:38:02.048Z,15.85
2019-05-09T21:40:35.823Z,15.78
2019-05-09T21:43:09.558Z,15.77
2019-05-09T21:45:43.266Z,15.73
2019-05-09T21:48:16.993Z,15.73
2019-05-09T21:50:50.689Z,16.01
2019-05-09T21:53:39.557Z,16.10
2019-05-09T21:55:59.825Z,15.80
2019-05-09T21:58:33.514Z,15.80
2019-05-09T22:01:07.210Z,15.66
2019-05-09T22:03:40.897Z,15.82
2019-05-09T22:06:14.593Z,15.66
2019-05-09T22:08:48.319Z,15.66
2019-05-09T22:11:22.033Z,15.32
2019-05-09T22:13:55.767Z,15.32
2019-05-09T22:16:29.462Z,15.42
2019-05-09T22:19:03.176Z,15.49
2019-05-09T22:21:36.893Z,15.49
2019-05-09T22:24:10.595Z,14.57
2019-05-09T22:26:44.325Z,14.68
2019-05-09T22:29:18.037Z,14.79
2019-05-09T22:31:51.750Z,15.37
2019-05-09T22:34:25.456Z,15.51
2019-05-09T22:36:59.180Z,15.49
2019-05-09T22:39:32.911Z,15.49
2019-05-09T22:42:06.613Z,14.96
2019-05-09T22:44:40.319Z,14.96
2019-05-09T22:47:14.039Z,15.31
2019-05-09T22:49:47.751Z,15.72
2019-05-09T22:52:21.489Z,15.72
2019-05-09T22:54:55.302Z,15.85
2019-05-09T22:57:29.007Z,15.84
2019-05-09T23:00:03.118Z,15.85
2019-05-09T23:02:36.885Z,15.85
2019-05-09T23:05:10.622Z,15.96
2019-05-09T23:07:44.331Z,15.96
2019-05-09T23:10:18.096Z,15.75
2019-05-09T23:12:51.861Z,15.75
2019-05-09T23:15:25.571Z,15.78
2019-05-09T23:17:59.286Z,15.73
2019-05-09T23:20:33.032Z,15.67
2019-05-09T23:23:06.812Z,15.65
2019-05-09T23:25:40.517Z,15.76
2019-05-09T23:28:14.246Z,15.76
2019-05-09T23:30:47.945Z,15.69
2019-05-09T23:33:21.673Z,15.69
2019-05-09T23:35:55.434Z,15.78
2019-05-09T23:38:29.171Z,15.70
2019-05-09T23:41:02.886Z,15.67
2019-05-09T23:43:36.604Z,15.53
2019-05-09T23:46:10.315Z,15.53
2019-05-09T23:48:44.042Z,15.60
2019-05-09T23:51:17.750Z,15.43
2019-05-09T23:53:51.484Z,15.54
2019-05-09T23:56:25.180Z,15.51
2019-05-09T23:58:58.903Z,15.37
